sensor_id;sensor_type;location;lat;lon;timestamp;pressure;altitude;pressure_sealevel;temperature;humidity
19286;BME280;9776;50.798;6.430;2023-06-19T00:01:56;99533.03;;;24.63;46.49
19286;BME280;9776;50.798;6.430;2023-06-19T00:04:22;99533.56;;;24.60;46.64
19286;BME280;9776;50.798;6.430;2023-06-19T00:06:49;99537.88;;;24.61;46.52
19286;BME280;9776;50.798;6.430;2023-06-19T00:09:16;99545.13;;;24.56;46.69
19286;BME280;9776;50.798;6.430;2023-06-19T00:11:42;99538.34;;;24.53;46.59
19286;BME280;9776;50.798;6.430;2023-06-19T00:14:09;99541.31;;;24.52;46.65
19286;BME280;9776;50.798;6.430;2023-06-19T00:16:37;99537.81;;;24.51;46.31
19286;BME280;9776;50.798;6.430;2023-06-19T00:19:05;99538.34;;;24.53;46.56
19286;BME280;9776;50.798;6.430;2023-06-19T00:21:32;99549.97;;;24.54;46.25
19286;BME280;9776;50.798;6.430;2023-06-19T00:23:58;99552.97;;;24.57;46.25
19286;BME280;9776;50.798;6.430;2023-06-19T00:26:25;99556.78;;;24.61;46.36
19286;BME280;9776;50.798;6.430;2023-06-19T00:28:52;99555.97;;;24.61;46.32
19286;BME280;9776;50.798;6.430;2023-06-19T00:31:18;99555.44;;;24.64;46.13
19286;BME280;9776;50.798;6.430;2023-06-19T00:33:46;99556.81;;;24.66;45.98
19286;BME280;9776;50.798;6.430;2023-06-19T00:36:15;99562.22;;;24.71;45.65
19286;BME280;9776;50.798;6.430;2023-06-19T00:38:45;99552.78;;;24.74;45.88
19286;BME280;9776;50.798;6.430;2023-06-19T00:41:12;99561.47;;;24.76;45.89
19286;BME280;9776;50.798;6.430;2023-06-19T00:43:38;99553.63;;;24.74;45.85
19286;BME280;9776;50.798;6.430;2023-06-19T00:46:05;99564.41;;;24.74;45.84
19286;BME280;9776;50.798;6.430;2023-06-19T00:48:34;99565.22;;;24.75;45.71
19286;BME280;9776;50.798;6.430;2023-06-19T00:51:02;99568.16;;;24.73;45.93
19286;BME280;9776;50.798;6.430;2023-06-19T00:53:30;99568.16;;;24.73;45.85
19286;BME280;9776;50.798;6.430;2023-06-19T00:55:57;99560.03;;;24.68;45.94
19286;BME280;9776;50.798;6.430;2023-06-19T00:58:24;99564.59;;;24.63;45.82
19286;BME280;9776;50.798;6.430;2023-06-19T01:00:51;99565.91;;;24.55;46.09
19286;BME280;9776;50.798;6.430;2023-06-19T01:03:18;99575.03;;;24.49;45.96
19286;BME280;9776;50.798;6.430;2023-06-19T01:05:47;99576.06;;;24.43;45.94
19286;BME280;9776;50.798;6.430;2023-06-19T01:08:28;99567.13;;;24.38;45.96
19286;BME280;9776;50.798;6.430;2023-06-19T01:11:02;99572.19;;;24.34;46.02
19286;BME280;9776;50.798;6.430;2023-06-19T01:13:36;99575.97;;;24.33;45.73
19286;BME280;9776;50.798;6.430;2023-06-19T01:16:04;99566.78;;;24.29;45.75
19286;BME280;9776;50.798;6.430;2023-06-19T01:18:32;99567.31;;;24.31;45.35
19286;BME280;9776;50.798;6.430;2023-06-19T01:21:09;99580.28;;;24.34;45.04
19286;BME280;9776;50.798;6.430;2023-06-19T01:23:37;99574.91;;;24.34;45.07
19286;BME280;9776;50.798;6.430;2023-06-19T01:26:05;99582.97;;;24.29;45.05
19286;BME280;9776;50.798;6.430;2023-06-19T01:28:32;99582.97;;;24.29;44.99
19286;BME280;9776;50.798;6.430;2023-06-19T01:31:00;99580.50;;;24.27;44.83
19286;BME280;9776;50.798;6.430;2023-06-19T01:33:28;99579.72;;;24.27;44.87
19286;BME280;9776;50.798;6.430;2023-06-19T01:35:57;99583.47;;;24.26;44.81
19286;BME280;9776;50.798;6.430;2023-06-19T01:38:25;99579.13;;;24.25;44.80
19286;BME280;9776;50.798;6.430;2023-06-19T01:40:55;99584.22;;;24.21;44.83
19286;BME280;9776;50.798;6.430;2023-06-19T01:43:23;99589.88;;;24.20;45.09
19286;BME280;9776;50.798;6.430;2023-06-19T01:45:50;99588.75;;;24.16;45.12
19286;BME280;9776;50.798;6.430;2023-06-19T01:48:17;99588.75;;;24.16;45.02
19286;BME280;9776;50.798;6.430;2023-06-19T01:50:45;99583.09;;;24.12;45.22
19286;BME280;9776;50.798;6.430;2023-06-19T01:53:12;99598.69;;;24.10;45.33
19286;BME280;9776;50.798;6.430;2023-06-19T01:55:38;99596.47;;;24.07;45.19
19286;BME280;9776;50.798;6.430;2023-06-19T01:58:06;99601.63;;;24.09;45.25
19286;BME280;9776;50.798;6.430;2023-06-19T02:00:33;99600.25;;;24.06;45.40
19286;BME280;9776;50.798;6.430;2023-06-19T02:03:00;99601.00;;;24.02;45.31
19286;BME280;9776;50.798;6.430;2023-06-19T02:05:27;99599.63;;;23.99;45.35
19286;BME280;9776;50.798;6.430;2023-06-19T02:07:54;99607.97;;;23.98;45.45
19286;BME280;9776;50.798;6.430;2023-06-19T02:10:20;99607.66;;;23.94;45.44
19286;BME280;9776;50.798;6.430;2023-06-19T02:12:47;99615.69;;;23.89;45.52
19286;BME280;9776;50.798;6.430;2023-06-19T02:15:15;99613.19;;;23.83;45.92
19286;BME280;9776;50.798;6.430;2023-06-19T02:17:42;99618.81;;;23.81;46.07
19286;BME280;9776;50.798;6.430;2023-06-19T02:20:09;99623.94;;;23.78;45.97
19286;BME280;9776;50.798;6.430;2023-06-19T02:22:37;99628.19;;;23.73;46.10
19286;BME280;9776;50.798;6.430;2023-06-19T02:25:04;99634.06;;;23.70;46.01
19286;BME280;9776;50.798;6.430;2023-06-19T02:27:31;99634.06;;;23.70;46.10
19286;BME280;9776;50.798;6.430;2023-06-19T02:29:58;99644.84;;;23.70;45.92
19286;BME280;9776;50.798;6.430;2023-06-19T02:32:26;99645.34;;;23.67;46.37
19286;BME280;9776;50.798;6.430;2023-06-19T02:34:52;99657.19;;;23.66;46.40
19286;BME280;9776;50.798;6.430;2023-06-19T02:37:19;99652.88;;;23.65;46.70
19286;BME280;9776;50.798;6.430;2023-06-19T02:39:46;99660.91;;;23.60;46.85
19286;BME280;9776;50.798;6.430;2023-06-19T02:42:12;99657.63;;;23.58;47.19
19286;BME280;9776;50.798;6.430;2023-06-19T02:44:39;99661.13;;;23.59;47.42
19286;BME280;9776;50.798;6.430;2023-06-19T02:47:07;99663.28;;;23.57;47.56
19286;BME280;9776;50.798;6.430;2023-06-19T02:49:35;99672.69;;;23.54;47.37
19286;BME280;9776;50.798;6.430;2023-06-19T02:52:02;99672.34;;;23.51;47.36
19286;BME280;9776;50.798;6.430;2023-06-19T02:54:29;99679.88;;;23.49;47.42
19286;BME280;9776;50.798;6.430;2023-06-19T02:56:56;99674.16;;;23.45;47.43
19286;BME280;9776;50.798;6.430;2023-06-19T02:59:22;99693.53;;;23.42;47.48
19286;BME280;9776;50.798;6.430;2023-06-19T03:01:49;99690.97;;;23.36;47.65
19286;BME280;9776;50.798;6.430;2023-06-19T03:04:17;99703.53;;;23.30;47.68
19286;BME280;9776;50.798;6.430;2023-06-19T03:06:45;99707.22;;;23.24;47.99
19286;BME280;9776;50.798;6.430;2023-06-19T03:09:11;99708.13;;;23.13;48.27
19286;BME280;9776;50.798;6.430;2023-06-19T03:11:38;99714.72;;;22.89;48.96
19286;BME280;9776;50.798;6.430;2023-06-19T03:14:05;99717.59;;;22.82;49.37
19286;BME280;9776;50.798;6.430;2023-06-19T03:16:33;99711.81;;;22.74;49.75
19286;BME280;9776;50.798;6.430;2023-06-19T03:19:00;99719.28;;;22.72;49.89
19286;BME280;9776;50.798;6.430;2023-06-19T03:21:27;99719.66;;;22.63;50.43
19286;BME280;9776;50.798;6.430;2023-06-19T03:23:55;99713.63;;;22.56;50.87
19286;BME280;9776;50.798;6.430;2023-06-19T03:26:22;99716.47;;;22.50;51.25
19286;BME280;9776;50.798;6.430;2023-06-19T03:28:50;99718.81;;;22.46;51.60
19286;BME280;9776;50.798;6.430;2023-06-19T03:31:16;99725.22;;;22.45;51.84
19286;BME280;9776;50.798;6.430;2023-06-19T03:33:43;99735.34;;;22.38;52.49
19286;BME280;9776;50.798;6.430;2023-06-19T03:36:09;99737.34;;;22.31;52.73
19286;BME280;9776;50.798;6.430;2023-06-19T03:38:36;99740.88;;;22.20;53.34
19286;BME280;9776;50.798;6.430;2023-06-19T03:41:04;99745.69;;;22.18;53.84
19286;BME280;9776;50.798;6.430;2023-06-19T03:43:31;99754.25;;;22.15;53.87
19286;BME280;9776;50.798;6.430;2023-06-19T03:45:57;99751.66;;;22.20;54.16
19286;BME280;9776;50.798;6.430;2023-06-19T03:48:24;99758.19;;;22.24;54.17
19286;BME280;9776;50.798;6.430;2023-06-19T03:50:50;99763.56;;;22.24;54.50
19286;BME280;9776;50.798;6.430;2023-06-19T03:53:17;99775.63;;;22.22;54.63
19286;BME280;9776;50.798;6.430;2023-06-19T03:55:44;99780.16;;;22.21;54.70
19286;BME280;9776;50.798;6.430;2023-06-19T03:58:12;99779.78;;;22.29;54.90
19286;BME280;9776;50.798;6.430;2023-06-19T04:00:39;99785.25;;;22.34;54.98
19286;BME280;9776;50.798;6.430;2023-06-19T04:03:06;99792.47;;;22.45;54.88
19286;BME280;9776;50.798;6.430;2023-06-19T04:05:34;99796.88;;;22.51;54.60
19286;BME280;9776;50.798;6.430;2023-06-19T04:08:01;99800.19;;;22.53;54.87
19286;BME280;9776;50.798;6.430;2023-06-19T04:10:28;99805.09;;;22.56;54.96
19286;BME280;9776;50.798;6.430;2023-06-19T04:12:55;99809.16;;;22.59;54.96
19286;BME280;9776;50.798;6.430;2023-06-19T04:15:23;99818.53;;;22.68;54.75
19286;BME280;9776;50.798;6.430;2023-06-19T04:17:50;99817.78;;;22.73;54.83
19286;BME280;9776;50.798;6.430;2023-06-19T04:20:16;99826.69;;;22.73;54.92
19286;BME280;9776;50.798;6.430;2023-06-19T04:22:43;99824.81;;;22.74;55.08
19286;BME280;9776;50.798;6.430;2023-06-19T04:25:10;99827.34;;;22.80;55.04
19286;BME280;9776;50.798;6.430;2023-06-19T04:27:36;99827.19;;;22.87;54.87
19286;BME280;9776;50.798;6.430;2023-06-19T04:30:04;99820.75;;;22.88;54.76
19286;BME280;9776;50.798;6.430;2023-06-19T04:32:33;99832.34;;;22.88;55.07
19286;BME280;9776;50.798;6.430;2023-06-19T04:34:59;99838.28;;;22.90;54.92
19286;BME280;9776;50.798;6.430;2023-06-19T04:37:26;99835.59;;;22.90;55.05
19286;BME280;9776;50.798;6.430;2023-06-19T04:39:53;99834.13;;;22.83;55.41
19286;BME280;9776;50.798;6.430;2023-06-19T04:42:19;99838.44;;;22.84;55.28
19286;BME280;9776;50.798;6.430;2023-06-19T04:44:46;99840.91;;;22.85;55.22
19286;BME280;9776;50.798;6.430;2023-06-19T04:47:12;99836.31;;;22.86;55.41
19286;BME280;9776;50.798;6.430;2023-06-19T04:49:40;99834.69;;;22.85;55.35
19286;BME280;9776;50.798;6.430;2023-06-19T04:52:07;99832.22;;;22.83;55.35
19286;BME280;9776;50.798;6.430;2023-06-19T04:54:34;99838.81;;;22.76;55.68
19286;BME280;9776;50.798;6.430;2023-06-19T04:57:00;99833.59;;;22.69;55.77
19286;BME280;9776;50.798;6.430;2023-06-19T04:59:27;99834.66;;;22.68;55.97
19286;BME280;9776;50.798;6.430;2023-06-19T05:01:55;99837.09;;;22.70;55.68
19286;BME280;9776;50.798;6.430;2023-06-19T05:04:23;99836.97;;;22.76;55.49
19286;BME280;9776;50.798;6.430;2023-06-19T05:06:51;99843.81;;;22.84;55.24
19286;BME280;9776;50.798;6.430;2023-06-19T05:09:18;99829.88;;;22.87;55.04
19286;BME280;9776;50.798;6.430;2023-06-19T05:11:45;99832.81;;;22.85;55.21
19286;BME280;9776;50.798;6.430;2023-06-19T05:14:11;99831.69;;;22.98;55.04
19286;BME280;9776;50.798;6.430;2023-06-19T05:16:39;99828.78;;;22.99;54.77
19286;BME280;9776;50.798;6.430;2023-06-19T05:19:06;99822.91;;;23.02;54.80
19286;BME280;9776;50.798;6.430;2023-06-19T05:21:32;99833.50;;;23.09;54.43
19286;BME280;9776;50.798;6.430;2023-06-19T05:24:00;99834.09;;;23.28;54.00
19286;BME280;9776;50.798;6.430;2023-06-19T05:26:27;99826.94;;;23.33;53.55
19286;BME280;9776;50.798;6.430;2023-06-19T05:28:54;99831.22;;;23.46;53.25
19286;BME280;9776;50.798;6.430;2023-06-19T05:31:20;99828.44;;;23.57;52.74
19286;BME280;9776;50.798;6.430;2023-06-19T05:33:47;99831.69;;;23.59;52.40
19286;BME280;9776;50.798;6.430;2023-06-19T05:36:13;99834.94;;;23.61;52.34
19286;BME280;9776;50.798;6.430;2023-06-19T05:38:40;99829.88;;;23.65;52.02
19286;BME280;9776;50.798;6.430;2023-06-19T05:41:08;99834.03;;;23.72;51.66
19286;BME280;9776;50.798;6.430;2023-06-19T05:43:35;99836.56;;;23.79;51.17
19286;BME280;9776;50.798;6.430;2023-06-19T05:46:01;99835.25;;;23.82;50.91
19286;BME280;9776;50.798;6.430;2023-06-19T05:48:28;99835.31;;;23.87;50.72
19286;BME280;9776;50.798;6.430;2023-06-19T05:50:55;99832.84;;;24.02;50.50
19286;BME280;9776;50.798;6.430;2023-06-19T05:53:22;99835.47;;;24.13;50.04
19286;BME280;9776;50.798;6.430;2023-06-19T05:55:48;99842.72;;;24.13;49.74
19286;BME280;9776;50.798;6.430;2023-06-19T05:58:16;99834.00;;;24.06;49.62
19286;BME280;9776;50.798;6.430;2023-06-19T06:00:45;99834.91;;;23.95;49.74
19286;BME280;9776;50.798;6.430;2023-06-19T06:03:12;99833.28;;;23.94;49.61
19286;BME280;9776;50.798;6.430;2023-06-19T06:05:39;99833.66;;;24.19;49.05
19286;BME280;9776;50.798;6.430;2023-06-19T06:08:05;99834.78;;;24.45;48.39
19286;BME280;9776;50.798;6.430;2023-06-19T06:10:33;99835.31;;;24.68;48.00
19286;BME280;9776;50.798;6.430;2023-06-19T06:12:59;99841.47;;;24.86;47.46
19286;BME280;9776;50.798;6.430;2023-06-19T06:15:27;99844.53;;;24.94;47.29
19286;BME280;9776;50.798;6.430;2023-06-19T06:17:54;99850.06;;;25.04;47.06
19286;BME280;9776;50.798;6.430;2023-06-19T06:20:21;99841.84;;;25.21;46.87
19286;BME280;9776;50.798;6.430;2023-06-19T06:22:47;99846.91;;;25.44;46.38
19286;BME280;9776;50.798;6.430;2023-06-19T06:25:14;99860.06;;;25.62;45.82
19286;BME280;9776;50.798;6.430;2023-06-19T06:27:41;99849.16;;;25.52;45.94
19286;BME280;9776;50.798;6.430;2023-06-19T06:30:09;99855.72;;;25.66;45.64
19286;BME280;9776;50.798;6.430;2023-06-19T06:32:38;99859.19;;;25.93;45.14
19286;BME280;9776;50.798;6.430;2023-06-19T06:35:05;99870.34;;;26.07;44.87
19286;BME280;9776;50.798;6.430;2023-06-19T06:37:32;99874.28;;;25.89;44.94
19286;BME280;9776;50.798;6.430;2023-06-19T06:39:59;99870.50;;;25.85;45.27
19286;BME280;9776;50.798;6.430;2023-06-19T06:42:26;99879.13;;;25.82;45.18
19286;BME280;9776;50.798;6.430;2023-06-19T06:44:52;99892.25;;;25.69;45.40
19286;BME280;9776;50.798;6.430;2023-06-19T06:47:19;99884.31;;;25.57;45.69
19286;BME280;9776;50.798;6.430;2023-06-19T06:49:47;99895.72;;;25.64;45.37
19286;BME280;9776;50.798;6.430;2023-06-19T06:52:14;99901.63;;;25.56;45.72
19286;BME280;9776;50.798;6.430;2023-06-19T06:54:40;99902.31;;;25.47;45.99
19286;BME280;9776;50.798;6.430;2023-06-19T06:57:07;99908.88;;;25.51;45.72
19286;BME280;9776;50.798;6.430;2023-06-19T06:59:33;99913.13;;;25.47;46.03
19286;BME280;9776;50.798;6.430;2023-06-19T07:02:00;99907.50;;;25.48;46.08
19286;BME280;9776;50.798;6.430;2023-06-19T07:04:27;99896.22;;;25.56;45.83
19286;BME280;9776;50.798;6.430;2023-06-19T07:06:55;99902.19;;;25.63;45.62
19286;BME280;9776;50.798;6.430;2023-06-19T07:09:23;99902.59;;;25.77;45.42
19286;BME280;9776;50.798;6.430;2023-06-19T07:11:50;99908.69;;;25.94;45.08
19286;BME280;9776;50.798;6.430;2023-06-19T07:14:16;99912.84;;;26.12;44.87
19286;BME280;9776;50.798;6.430;2023-06-19T07:16:44;99912.34;;;26.15;44.75
19286;BME280;9776;50.798;6.430;2023-06-19T07:19:11;99919.47;;;26.26;44.62
19286;BME280;9776;50.798;6.430;2023-06-19T07:21:39;99920.94;;;26.43;44.21
19286;BME280;9776;50.798;6.430;2023-06-19T07:24:08;99934.78;;;26.57;43.94
19286;BME280;9776;50.798;6.430;2023-06-19T07:26:35;99933.66;;;26.53;43.79
19286;BME280;9776;50.798;6.430;2023-06-19T07:29:01;99943.13;;;26.50;44.08
19286;BME280;9776;50.798;6.430;2023-06-19T07:31:28;99942.81;;;26.42;43.82
19286;BME280;9776;50.798;6.430;2023-06-19T07:33:55;99932.00;;;26.47;44.08
19286;BME280;9776;50.798;6.430;2023-06-19T07:36:21;99938.03;;;26.59;43.70
19286;BME280;9776;50.798;6.430;2023-06-19T07:38:48;99937.50;;;26.62;43.84
19286;BME280;9776;50.798;6.430;2023-06-19T07:41:16;99936.47;;;26.78;43.26
19286;BME280;9776;50.798;6.430;2023-06-19T07:43:42;99932.16;;;26.72;43.13
19286;BME280;9776;50.798;6.430;2023-06-19T07:46:09;99941.06;;;26.68;43.04
19286;BME280;9776;50.798;6.430;2023-06-19T07:48:36;99948.47;;;26.82;42.78
19286;BME280;9776;50.798;6.430;2023-06-19T07:51:02;99944.25;;;27.22;41.83
19286;BME280;9776;50.798;6.430;2023-06-19T07:53:29;99944.53;;;27.30;41.98
19286;BME280;9776;50.798;6.430;2023-06-19T07:55:56;99927.78;;;27.74;40.86
19286;BME280;9776;50.798;6.430;2023-06-19T07:58:24;99935.94;;;27.94;40.77
19286;BME280;9776;50.798;6.430;2023-06-19T08:00:50;99938.59;;;28.34;40.00
19286;BME280;9776;50.798;6.430;2023-06-19T08:03:17;99941.94;;;29.00;38.87
19286;BME280;9776;50.798;6.430;2023-06-19T08:05:44;99943.34;;;29.42;37.71
19286;BME280;9776;50.798;6.430;2023-06-19T08:08:12;99937.56;;;29.92;37.25
19286;BME280;9776;50.798;6.430;2023-06-19T08:10:38;99938.75;;;30.39;36.51
19286;BME280;9776;50.798;6.430;2023-06-19T08:13:06;99930.69;;;30.52;35.97
19286;BME280;9776;50.798;6.430;2023-06-19T08:15:34;99917.47;;;30.64;35.39
19286;BME280;9776;50.798;6.430;2023-06-19T08:18:01;99920.72;;;30.43;35.39
19286;BME280;9776;50.798;6.430;2023-06-19T08:20:27;99922.41;;;30.39;35.60
19286;BME280;9776;50.798;6.430;2023-06-19T08:22:54;99917.91;;;30.71;35.12
19286;BME280;9776;50.798;6.430;2023-06-19T08:25:21;99926.31;;;31.17;33.84
19286;BME280;9776;50.798;6.430;2023-06-19T08:27:48;99926.41;;;30.88;34.03
19286;BME280;9776;50.798;6.430;2023-06-19T08:30:14;99930.31;;;30.82;34.32
19286;BME280;9776;50.798;6.430;2023-06-19T08:32:43;99922.91;;;30.88;34.21
19286;BME280;9776;50.798;6.430;2023-06-19T08:35:10;99932.88;;;31.35;33.68
19286;BME280;9776;50.798;6.430;2023-06-19T08:37:36;99927.28;;;31.96;32.78
19286;BME280;9776;50.798;6.430;2023-06-19T08:40:03;99932.03;;;32.36;32.38
19286;BME280;9776;50.798;6.430;2023-06-19T08:42:34;99931.31;;;32.17;32.29
19286;BME280;9776;50.798;6.430;2023-06-19T08:45:01;99921.19;;;32.31;31.91
19286;BME280;9776;50.798;6.430;2023-06-19T08:47:29;99927.25;;;32.42;31.77
19286;BME280;9776;50.798;6.430;2023-06-19T08:49:58;99943.28;;;32.89;31.56
19286;BME280;9776;50.798;6.430;2023-06-19T08:52:24;99935.13;;;33.25;30.73
19286;BME280;9776;50.798;6.430;2023-06-19T08:54:51;99946.19;;;33.20;30.70
19286;BME280;9776;50.798;6.430;2023-06-19T08:57:18;99949.84;;;33.16;30.64
19286;BME280;9776;50.798;6.430;2023-06-19T08:59:48;99942.94;;;33.18;30.44
19286;BME280;9776;50.798;6.430;2023-06-19T09:02:16;99946.81;;;32.90;30.96
19286;BME280;9776;50.798;6.430;2023-06-19T09:04:42;99952.31;;;32.63;31.17
19286;BME280;9776;50.798;6.430;2023-06-19T09:07:12;99941.06;;;32.78;30.55
19286;BME280;9776;50.798;6.430;2023-06-19T09:09:44;99951.03;;;32.14;31.26
19286;BME280;9776;50.798;6.430;2023-06-19T09:12:12;99951.13;;;31.90;31.72
19286;BME280;9776;50.798;6.430;2023-06-19T09:14:40;99952.16;;;32.40;31.05
19286;BME280;9776;50.798;6.430;2023-06-19T09:17:10;99952.91;;;32.87;30.33
19286;BME280;9776;50.798;6.430;2023-06-19T09:19:37;99952.50;;;33.43;29.60
19286;BME280;9776;50.798;6.430;2023-06-19T09:22:06;99960.56;;;33.84;29.10
19286;BME280;9776;50.798;6.430;2023-06-19T09:24:35;99957.47;;;34.30;28.59
19286;BME280;9776;50.798;6.430;2023-06-19T09:27:07;99954.25;;;35.15;27.43
19286;BME280;9776;50.798;6.430;2023-06-19T09:29:36;99961.34;;;35.50;27.01
19286;BME280;9776;50.798;6.430;2023-06-19T09:32:14;99956.53;;;36.45;25.97
19286;BME280;9776;50.798;6.430;2023-06-19T09:34:40;99952.28;;;36.94;24.90
19286;BME280;9776;50.798;6.430;2023-06-19T09:37:08;99954.91;;;37.32;24.45
19286;BME280;9776;50.798;6.430;2023-06-19T09:39:37;99959.91;;;38.25;23.45
19286;BME280;9776;50.798;6.430;2023-06-19T09:42:06;99959.97;;;38.85;22.37
19286;BME280;9776;50.798;6.430;2023-06-19T09:44:39;99950.63;;;39.26;22.39
19286;BME280;9776;50.798;6.430;2023-06-19T09:47:13;99954.47;;;38.61;22.63
19286;BME280;9776;50.798;6.430;2023-06-19T09:49:48;99958.25;;;39.05;22.22
19286;BME280;9776;50.798;6.430;2023-06-19T09:52:16;99944.59;;;39.92;21.32
19286;BME280;9776;50.798;6.430;2023-06-19T09:54:46;99957.41;;;40.90;20.40
19286;BME280;9776;50.798;6.430;2023-06-19T09:57:12;99943.34;;;40.64;20.38
19286;BME280;9776;50.798;6.430;2023-06-19T09:59:40;99937.47;;;40.50;20.46
19286;BME280;9776;50.798;6.430;2023-06-19T10:02:10;99942.44;;;41.10;19.98
19286;BME280;9776;50.798;6.430;2023-06-19T10:04:45;99940.41;;;41.61;19.46
19286;BME280;9776;50.798;6.430;2023-06-19T10:07:16;99941.66;;;42.51;18.95
19286;BME280;9776;50.798;6.430;2023-06-19T10:09:56;99944.94;;;42.83;18.69
19286;BME280;9776;50.798;6.430;2023-06-19T10:12:34;99948.09;;;43.71;17.69
19286;BME280;9776;50.798;6.430;2023-06-19T10:15:08;99937.56;;;43.83;17.32
19286;BME280;9776;50.798;6.430;2023-06-19T10:17:35;99947.69;;;44.46;16.66
19286;BME280;9776;50.798;6.430;2023-06-19T10:20:02;99940.59;;;45.17;16.27
19286;BME280;9776;50.798;6.430;2023-06-19T10:22:30;99933.22;;;45.53;15.87
19286;BME280;9776;50.798;6.430;2023-06-19T10:24:58;99931.47;;;45.20;16.10
19286;BME280;9776;50.798;6.430;2023-06-19T10:27:25;99930.81;;;45.48;15.74
19286;BME280;9776;50.798;6.430;2023-06-19T10:29:52;99925.72;;;45.78;15.62
19286;BME280;9776;50.798;6.430;2023-06-19T10:32:20;99926.19;;;44.43;16.33
19286;BME280;9776;50.798;6.430;2023-06-19T10:34:47;99925.66;;;42.93;17.37
19286;BME280;9776;50.798;6.430;2023-06-19T10:37:14;99919.44;;;41.83;18.28
19286;BME280;9776;50.798;6.430;2023-06-19T10:39:41;99920.47;;;41.37;18.99
19286;BME280;9776;50.798;6.430;2023-06-19T10:42:09;99916.63;;;42.02;18.27
19286;BME280;9776;50.798;6.430;2023-06-19T10:44:36;99918.25;;;43.01;17.27
19286;BME280;9776;50.798;6.430;2023-06-19T10:47:04;99915.03;;;44.43;16.59
19286;BME280;9776;50.798;6.430;2023-06-19T10:49:32;99919.69;;;45.51;15.53
19286;BME280;9776;50.798;6.430;2023-06-19T10:51:59;99920.63;;;46.47;14.85
19286;BME280;9776;50.798;6.430;2023-06-19T10:54:28;99917.25;;;47.30;14.32
19286;BME280;9776;50.798;6.430;2023-06-19T10:56:55;99913.88;;;47.67;14.27
19286;BME280;9776;50.798;6.430;2023-06-19T10:59:24;99905.34;;;47.08;14.57
19286;BME280;9776;50.798;6.430;2023-06-19T11:01:50;99911.03;;;46.34;14.76
19286;BME280;9776;50.798;6.430;2023-06-19T11:04:17;99915.81;;;46.34;14.77
19286;BME280;9776;50.798;6.430;2023-06-19T11:06:44;99898.94;;;47.08;13.94
19286;BME280;9776;50.798;6.430;2023-06-19T11:09:13;99899.78;;;47.81;13.80
19286;BME280;9776;50.798;6.430;2023-06-19T11:11:41;99908.00;;;48.06;13.57
19286;BME280;9776;50.798;6.430;2023-06-19T11:14:09;99888.78;;;47.56;13.49
19286;BME280;9776;50.798;6.430;2023-06-19T11:16:40;99898.56;;;47.86;13.50
19286;BME280;9776;50.798;6.430;2023-06-19T11:19:07;99888.81;;;48.89;13.15
19286;BME280;9776;50.798;6.430;2023-06-19T11:21:35;99888.38;;;49.82;12.45
19286;BME280;9776;50.798;6.430;2023-06-19T11:24:05;99881.91;;;49.62;12.56
19286;BME280;9776;50.798;6.430;2023-06-19T11:26:35;99878.81;;;49.79;12.32
19286;BME280;9776;50.798;6.430;2023-06-19T11:29:13;99877.69;;;50.00;12.22
19286;BME280;9776;50.798;6.430;2023-06-19T11:31:41;99883.78;;;49.41;12.40
19286;BME280;9776;50.798;6.430;2023-06-19T11:34:08;99883.84;;;48.70;12.65
19286;BME280;9776;50.798;6.430;2023-06-19T11:36:37;99880.16;;;48.40;13.22
19286;BME280;9776;50.798;6.430;2023-06-19T11:39:03;99881.31;;;47.28;13.63
19286;BME280;9776;50.798;6.430;2023-06-19T11:41:34;99877.88;;;46.93;13.79
19286;BME280;9776;50.798;6.430;2023-06-19T11:44:03;99877.31;;;47.33;13.31
19286;BME280;9776;50.798;6.430;2023-06-19T11:46:30;99872.03;;;47.49;13.44
19286;BME280;9776;50.798;6.430;2023-06-19T11:49:09;99863.97;;;46.50;13.88
19286;BME280;9776;50.798;6.430;2023-06-19T11:51:36;99863.00;;;47.17;13.35
19286;BME280;9776;50.798;6.430;2023-06-19T11:54:05;99858.06;;;47.49;13.07
19286;BME280;9776;50.798;6.430;2023-06-19T11:56:32;99860.00;;;46.44;13.89
19286;BME280;9776;50.798;6.430;2023-06-19T11:58:59;99852.72;;;45.37;14.67
19286;BME280;9776;50.798;6.430;2023-06-19T12:01:26;99849.81;;;45.09;14.86
19286;BME280;9776;50.798;6.430;2023-06-19T12:03:52;99848.31;;;45.29;14.88
19286;BME280;9776;50.798;6.430;2023-06-19T12:06:21;99859.91;;;45.31;14.73
19286;BME280;9776;50.798;6.430;2023-06-19T12:08:47;99857.00;;;44.45;15.53
19286;BME280;9776;50.798;6.430;2023-06-19T12:11:14;99848.94;;;43.45;16.05
19286;BME280;9776;50.798;6.430;2023-06-19T12:13:41;99859.31;;;42.10;17.07
19286;BME280;9776;50.798;6.430;2023-06-19T12:16:07;99863.16;;;41.02;17.77
19286;BME280;9776;50.798;6.430;2023-06-19T12:18:34;99853.50;;;40.58;18.62
19286;BME280;9776;50.798;6.430;2023-06-19T12:21:01;99858.88;;;40.19;19.06
19286;BME280;9776;50.798;6.430;2023-06-19T12:23:29;99862.88;;;39.63;19.08
19286;BME280;9776;50.798;6.430;2023-06-19T12:25:56;99856.31;;;39.40;19.58
19286;BME280;9776;50.798;6.430;2023-06-19T12:28:22;99849.53;;;39.09;19.80
19286;BME280;9776;50.798;6.430;2023-06-19T12:30:51;99857.00;;;38.33;20.43
19286;BME280;9776;50.798;6.430;2023-06-19T12:33:18;99863.50;;;37.59;21.00
19286;BME280;9776;50.798;6.430;2023-06-19T12:35:46;99862.84;;;37.41;21.24
19286;BME280;9776;50.798;6.430;2023-06-19T12:38:13;99867.50;;;36.87;21.88
19286;BME280;9776;50.798;6.430;2023-06-19T12:40:41;99868.88;;;36.52;22.29
19286;BME280;9776;50.798;6.430;2023-06-19T12:43:07;99863.94;;;36.28;22.49
19286;BME280;9776;50.798;6.430;2023-06-19T12:45:34;99857.47;;;36.33;22.40
19286;BME280;9776;50.798;6.430;2023-06-19T12:48:01;99849.97;;;36.13;22.51
19286;BME280;9776;50.798;6.430;2023-06-19T12:50:27;99859.84;;;35.97;22.84
19286;BME280;9776;50.798;6.430;2023-06-19T12:52:54;99861.13;;;35.99;22.93
19286;BME280;9776;50.798;6.430;2023-06-19T12:55:21;99858.81;;;35.72;23.08
19286;BME280;9776;50.798;6.430;2023-06-19T12:57:49;99857.22;;;35.62;23.25
19286;BME280;9776;50.798;6.430;2023-06-19T13:00:15;99855.09;;;35.68;23.22
19286;BME280;9776;50.798;6.430;2023-06-19T13:02:44;99852.88;;;35.53;23.47
19286;BME280;9776;50.798;6.430;2023-06-19T13:05:12;99851.75;;;35.28;23.73
19286;BME280;9776;50.798;6.430;2023-06-19T13:07:38;99846.91;;;35.08;24.00
19286;BME280;9776;50.798;6.430;2023-06-19T13:10:06;99846.59;;;35.01;24.05
19286;BME280;9776;50.798;6.430;2023-06-19T13:12:32;99835.44;;;34.89;24.27